Time;durP1;ratioP1;P1;durP2;ratioP2;P2;SDS_P1;SDS_P2;PMS_P1;PMS_P2;Temp;Humidity;BMP_temperature;BMP_pressure;BME280_temperature;BME280_humidity;BME280_pressure;Samples;Min_cycle;Max_cycle;Signal;HPM_P1;HPM_P2
2024/03/24 00:02:20;;;;;;;;;;;;;;;6.93;82.35;100128.69;5049416;27;98703;-74
2024/03/24 00:04:47;;;;;;;;;;;;;;;7.28;80.92;100125.84;5052907;27;97741;-74
2024/03/24 00:07:12;;;;;;;;;;;;;;;7.47;79.88;100111.19;5048703;27;96773;-74
2024/03/24 00:09:38;;;;;;;;;;;;;;;7.49;78.73;100116.38;5053765;27;96767;-74
2024/03/24 00:12:04;;;;;;;;;;;;;;;7.54;78.45;100107.44;5052403;27;99319;-74
2024/03/24 00:14:31;;;;;;;;;;;;;;;7.56;78.46;100110.00;5052720;27;98695;-74
2024/03/24 00:16:57;;;;;;;;;;;;;;;7.51;78.20;100104.91;5052532;27;96892;-75
2024/03/24 00:19:23;;;;;;;;;;;;;;;8.04;76.62;100091.69;5051610;27;97310;-75
2024/03/24 00:21:49;;;;;;;;;;;;;;;8.21;75.65;100096.34;5052771;27;98853;-75
2024/03/24 00:24:15;;;;;;;;;;;;;;;7.91;76.04;100095.66;5053752;27;98750;-74
2024/03/24 00:26:41;;;;;;;;;;;;;;;7.66;77.11;100094.78;5052286;27;99050;-74
2024/03/24 00:29:07;;;;;;;;;;;;;;;8.04;76.12;100093.47;5052491;27;99119;-73
2024/03/24 00:31:33;;;;;;;;;;;;;;;8.10;75.12;100093.25;5052301;27;98132;-75
2024/03/24 00:34:00;;;;;;;;;;;;;;;7.80;75.97;100082.91;5052912;27;98874;-75
2024/03/24 00:36:25;;;;;;;;;;;;;;;8.11;75.05;100080.03;5053415;27;96774;-74
2024/03/24 00:38:51;;;;;;;;;;;;;;;8.16;74.92;100072.81;5052568;27;97471;-75
2024/03/24 00:41:19;;;;;;;;;;;;;;;8.13;75.40;100078.22;5054516;27;99409;-74
2024/03/24 00:43:45;;;;;;;;;;;;;;;8.17;74.95;100078.94;5053789;27;99041;-74
2024/03/24 00:46:10;;;;;;;;;;;;;;;8.26;75.10;100082.13;5051581;27;97124;-74
2024/03/24 00:48:38;;;;;;;;;;;;;;;8.27;74.53;100083.81;5053053;27;97603;-75
2024/03/24 00:51:04;;;;;;;;;;;;;;;7.70;76.93;100072.72;5050573;27;99040;-75
2024/03/24 00:53:30;;;;;;;;;;;;;;;7.73;77.13;100076.13;5051433;27;99555;-74
2024/03/24 00:55:55;;;;;;;;;;;;;;;7.85;76.29;100069.56;5051639;27;97205;-74
2024/03/24 00:58:22;;;;;;;;;;;;;;;7.33;78.01;100062.59;5048649;27;97753;-74
2024/03/24 01:00:47;;;;;;;;;;;;;;;7.27;79.15;100060.19;5051586;27;101564;-75
2024/03/24 01:03:15;;;;;;;;;;;;;;;7.74;77.88;100059.44;5052124;27;97832;-75
2024/03/24 01:05:41;;;;;;;;;;;;;;;7.96;76.77;100057.75;5050864;27;97218;-75
2024/03/24 01:08:08;;;;;;;;;;;;;;;8.09;76.32;100057.31;5053331;27;96797;-74
2024/03/24 01:10:35;;;;;;;;;;;;;;;8.12;75.12;100046.69;5049711;27;101852;-74
2024/03/24 01:13:01;;;;;;;;;;;;;;;7.58;77.04;100040.69;5052582;27;99053;-75
2024/03/24 01:15:29;;;;;;;;;;;;;;;7.64;77.37;100038.75;5051074;27;96827;-74
2024/03/24 01:17:56;;;;;;;;;;;;;;;7.53;77.85;100040.00;5052664;27;96817;-75
2024/03/24 01:20:21;;;;;;;;;;;;;;;7.50;77.86;100041.84;5048647;27;99397;-75
2024/03/24 01:22:48;;;;;;;;;;;;;;;7.53;77.96;100031.25;5051406;27;101736;-75
2024/03/24 01:25:14;;;;;;;;;;;;;;;7.80;76.76;100029.44;5049822;27;96821;-75
2024/03/24 01:27:40;;;;;;;;;;;;;;;7.89;76.28;100029.09;5050421;27;96864;-75
2024/03/24 01:30:06;;;;;;;;;;;;;;;8.06;75.19;100031.97;5048604;27;98115;-75
2024/03/24 01:32:32;;;;;;;;;;;;;;;8.27;74.29;100025.06;5050123;27;99443;-74
2024/03/24 01:34:58;;;;;;;;;;;;;;;8.12;74.17;100021.22;5052242;27;96866;-74
2024/03/24 01:37:24;;;;;;;;;;;;;;;8.09;74.31;100021.31;5052073;27;98277;-74
2024/03/24 01:39:51;;;;;;;;;;;;;;;7.92;74.52;100018.47;5052028;27;97725;-74
2024/03/24 01:42:17;;;;;;;;;;;;;;;7.69;76.53;100015.78;5051724;27;98829;-73
2024/03/24 01:44:42;;;;;;;;;;;;;;;7.91;75.32;100016.75;5050834;27;96789;-74
2024/03/24 01:47:09;;;;;;;;;;;;;;;7.46;76.70;100011.34;5049275;27;97139;-74
2024/03/24 01:49:35;;;;;;;;;;;;;;;7.27;77.93;100015.50;5049529;27;98644;-74
2024/03/24 01:52:04;;;;;;;;;;;;;;;7.34;77.80;100010.00;5050198;27;97404;-75
2024/03/24 01:54:30;;;;;;;;;;;;;;;7.54;77.13;100002.28;5050182;27;96807;-74
2024/03/24 01:56:57;;;;;;;;;;;;;;;7.64;76.46;100007.19;5052098;27;96886;-74
2024/03/24 01:59:22;;;;;;;;;;;;;;;7.70;75.86;99997.31;5049866;27;101050;-75
2024/03/24 02:01:49;;;;;;;;;;;;;;;7.49;76.46;99998.94;5051498;27;98881;-75
2024/03/24 02:04:14;;;;;;;;;;;;;;;7.56;76.66;100002.19;5051663;27;96810;-75
2024/03/24 02:06:40;;;;;;;;;;;;;;;7.34;77.67;99988.97;5051218;27;97947;-75
2024/03/24 02:09:06;;;;;;;;;;;;;;;7.53;76.95;99981.28;5050191;27;98946;-74
2024/03/24 02:11:32;;;;;;;;;;;;;;;7.55;76.80;99982.94;5050294;27;99187;-74
2024/03/24 02:13:59;;;;;;;;;;;;;;;7.70;75.70;99986.81;5051861;27;96955;-74
2024/03/24 02:16:26;;;;;;;;;;;;;;;7.56;76.21;99989.91;5051829;27;97403;-75
2024/03/24 02:18:51;;;;;;;;;;;;;;;7.58;76.24;99985.47;5051962;27;99107;-74
2024/03/24 02:21:17;;;;;;;;;;;;;;;7.61;75.63;99977.47;5049518;27;99193;-74
2024/03/24 02:23:44;;;;;;;;;;;;;;;7.66;75.61;99973.84;5051068;27;97466;-75
2024/03/24 02:26:10;;;;;;;;;;;;;;;7.58;75.48;99966.22;5051140;27;96677;-74
2024/03/24 02:28:36;;;;;;;;;;;;;;;7.51;76.50;99965.56;5053610;27;97891;-75
2024/03/24 02:31:02;;;;;;;;;;;;;;;7.44;75.66;99964.06;5051499;27;98734;-74
2024/03/24 02:33:28;;;;;;;;;;;;;;;7.19;76.97;99969.31;5055923;27;96983;-74
2024/03/24 02:35:54;;;;;;;;;;;;;;;6.72;79.97;99968.25;5054950;27;98961;-71
2024/03/24 02:38:19;;;;;;;;;;;;;;;6.44;81.07;99967.38;5054193;27;99117;-71
2024/03/24 02:40:49;;;;;;;;;;;;;;;6.71;80.38;99955.16;5053639;27;99338;-71
2024/03/24 02:43:14;;;;;;;;;;;;;;;6.84;79.62;99959.13;5055030;27;96807;-71
2024/03/24 02:45:41;;;;;;;;;;;;;;;6.76;79.95;99959.34;5056074;27;98789;-71
2024/03/24 02:48:06;;;;;;;;;;;;;;;6.69;80.28;99963.13;5053201;27;98096;-71
2024/03/24 02:50:32;;;;;;;;;;;;;;;6.63;80.13;99962.44;5053146;27;97683;-71
2024/03/24 02:52:58;;;;;;;;;;;;;;;6.41;82.22;99959.63;5054204;27;98852;-71
2024/03/24 02:55:25;;;;;;;;;;;;;;;6.54;81.28;99955.72;5055111;27;97055;-71
2024/03/24 02:57:51;;;;;;;;;;;;;;;6.79;80.79;99954.03;5052682;27;102221;-71
2024/03/24 03:00:18;;;;;;;;;;;;;;;7.04;78.88;99951.44;5051784;27;99679;-71
2024/03/24 03:02:43;;;;;;;;;;;;;;;6.86;78.87;99945.94;5054206;27;97161;-71
2024/03/24 03:05:09;;;;;;;;;;;;;;;6.75;79.82;99941.91;5054624;27;98345;-71
2024/03/24 03:07:35;;;;;;;;;;;;;;;6.62;79.73;99944.97;5055173;27;98944;-70
2024/03/24 03:10:04;;;;;;;;;;;;;;;6.84;79.87;99942.50;5053710;27;98768;-70
2024/03/24 03:12:29;;;;;;;;;;;;;;;6.82;79.55;99937.31;5052941;27;96816;-71
2024/03/24 03:14:57;;;;;;;;;;;;;;;6.94;79.24;99941.31;5052951;27;97009;-71
2024/03/24 03:17:22;;;;;;;;;;;;;;;7.17;78.28;99930.84;5052983;27;102055;-71
2024/03/24 03:19:48;;;;;;;;;;;;;;;7.29;77.52;99932.19;5053662;27;98904;-71
2024/03/24 03:22:13;;;;;;;;;;;;;;;7.31;77.21;99931.25;5052684;27;97408;-71
2024/03/24 03:24:40;;;;;;;;;;;;;;;7.47;76.62;99927.16;5048362;27;96781;-71
2024/03/24 03:27:05;;;;;;;;;;;;;;;7.59;75.60;99931.97;5053108;27;98916;-71
2024/03/24 03:29:31;;;;;;;;;;;;;;;7.29;76.28;99917.28;5054599;27;98793;-71
2024/03/24 03:31:58;;;;;;;;;;;;;;;7.57;75.98;99917.16;5053870;27;96764;-71
2024/03/24 03:34:24;;;;;;;;;;;;;;;7.61;75.33;99927.50;5051061;27;97181;-71
2024/03/24 03:36:49;;;;;;;;;;;;;;;7.55;75.35;99921.63;5052706;27;99050;-71
2024/03/24 03:39:15;;;;;;;;;;;;;;;7.56;75.55;99924.19;5053041;27;99401;-71
2024/03/24 03:41:43;;;;;;;;;;;;;;;7.68;74.70;99915.00;5054716;27;97032;-72
2024/03/24 03:44:09;;;;;;;;;;;;;;;7.57;75.00;99912.78;5053674;27;96870;-72
2024/03/24 03:46:35;;;;;;;;;;;;;;;7.54;75.46;99917.28;5053661;27;97367;-72
2024/03/24 03:49:02;;;;;;;;;;;;;;;7.51;75.53;99917.38;5054530;27;96819;-71
2024/03/24 03:51:36;;;;;;;;;;;;;;;7.55;75.25;99914.59;5051745;27;96906;-71
2024/03/24 03:54:03;;;;;;;;;;;;;;;7.54;75.17;99912.03;5050277;27;99598;-71
2024/03/24 03:56:28;;;;;;;;;;;;;;;7.41;75.77;99909.00;5052714;27;99122;-71
2024/03/24 03:58:54;;;;;;;;;;;;;;;7.43;76.04;99904.50;5051922;27;99724;-71
2024/03/24 04:01:20;;;;;;;;;;;;;;;7.30;76.09;99899.75;5052020;27;96760;-71
2024/03/24 04:03:46;;;;;;;;;;;;;;;7.22;76.61;99909.69;5054404;27;97673;-71
2024/03/24 04:06:13;;;;;;;;;;;;;;;7.12;77.18;99906.53;5052224;27;100352;-71
2024/03/24 04:08:40;;;;;;;;;;;;;;;6.98;77.69;99904.38;5054119;27;98766;-70
2024/03/24 04:11:07;;;;;;;;;;;;;;;6.46;79.78;99901.75;5052194;27;97194;-70
2024/03/24 04:13:33;;;;;;;;;;;;;;;6.74;79.39;99895.56;5053367;27;96743;-70
2024/03/24 04:15:58;;;;;;;;;;;;;;;6.68;79.34;99898.38;5047178;27;99391;-71
2024/03/24 04:18:24;;;;;;;;;;;;;;;6.51;79.60;99895.44;5049001;27;101104;-71
2024/03/24 04:20:50;;;;;;;;;;;;;;;6.66;79.83;99892.31;5051648;27;96707;-72
2024/03/24 04:23:17;;;;;;;;;;;;;;;6.68;79.43;99882.63;5054266;27;96773;-71
2024/03/24 04:25:43;;;;;;;;;;;;;;;6.68;79.64;99894.91;5052537;27;97526;-71
2024/03/24 04:28:09;;;;;;;;;;;;;;;7.00;77.67;99878.91;5052710;27;100766;-71
2024/03/24 04:30:34;;;;;;;;;;;;;;;6.88;77.92;99878.47;5052650;27;96772;-71
2024/03/24 04:33:01;;;;;;;;;;;;;;;6.98;77.98;99871.97;5053106;27;96898;-71
2024/03/24 04:35:27;;;;;;;;;;;;;;;7.13;77.55;99879.34;5051980;27;98851;-71
2024/03/24 04:37:54;;;;;;;;;;;;;;;7.13;77.26;99874.09;5049845;27;98651;-71
2024/03/24 04:40:21;;;;;;;;;;;;;;;7.26;76.18;99879.75;5050095;27;96933;-71
2024/03/24 04:42:48;;;;;;;;;;;;;;;7.22;76.16;99879.00;5051682;27;96704;-71
2024/03/24 04:45:15;;;;;;;;;;;;;;;7.28;76.19;99876.19;5052974;27;99647;-71
2024/03/24 04:47:42;;;;;;;;;;;;;;;7.08;77.34;99876.88;5053347;27;98375;-71
2024/03/24 04:50:07;;;;;;;;;;;;;;;7.00;77.33;99875.44;5047022;27;97188;-71
2024/03/24 04:52:34;;;;;;;;;;;;;;;6.88;77.63;99881.09;5051238;27;97264;-71
2024/03/24 04:54:59;;;;;;;;;;;;;;;6.88;77.99;99881.97;5052657;27;101514;-71
2024/03/24 04:57:27;;;;;;;;;;;;;;;6.98;77.84;99867.59;5052226;27;99091;-71
2024/03/24 04:59:53;;;;;;;;;;;;;;;7.09;76.92;99872.47;5051853;27;96699;-71
2024/03/24 05:02:19;;;;;;;;;;;;;;;7.18;76.82;99872.16;5051901;27;96898;-71
2024/03/24 05:04:44;;;;;;;;;;;;;;;7.22;75.79;99871.97;5052416;27;98800;-71
2024/03/24 05:07:10;;;;;;;;;;;;;;;7.35;75.30;99868.94;5051214;27;97340;-72
2024/03/24 05:09:36;;;;;;;;;;;;;;;7.37;74.91;99867.94;5052880;27;96762;-71
2024/03/24 05:12:02;;;;;;;;;;;;;;;7.09;76.38;99867.19;5052475;27;97052;-71
2024/03/24 05:14:29;;;;;;;;;;;;;;;7.18;75.92;99866.88;5052650;27;99576;-71
2024/03/24 05:16:55;;;;;;;;;;;;;;;7.39;75.44;99870.53;5049676;27;99304;-71
2024/03/24 05:19:20;;;;;;;;;;;;;;;7.49;74.42;99859.59;5049939;27;96886;-71
2024/03/24 05:21:47;;;;;;;;;;;;;;;7.60;74.00;99862.72;5052582;27;96784;-71
2024/03/24 05:24:12;;;;;;;;;;;;;;;7.30;74.68;99866.44;5051636;27;100949;-71
2024/03/24 05:26:38;;;;;;;;;;;;;;;7.30;74.48;99881.34;5051285;27;98679;-71
2024/03/24 05:29:05;;;;;;;;;;;;;;;7.32;74.79;99876.91;5050519;27;96724;-71
2024/03/24 05:31:33;;;;;;;;;;;;;;;7.30;75.01;99876.09;5051232;27;98142;-71
2024/03/24 05:33:59;;;;;;;;;;;;;;;7.51;74.55;99863.03;5052918;27;98862;-72
2024/03/24 05:36:25;;;;;;;;;;;;;;;7.59;74.07;99868.88;5051192;27;101391;-72
2024/03/24 05:38:50;;;;;;;;;;;;;;;7.64;73.45;99866.06;5051806;27;96666;-72
2024/03/24 05:41:17;;;;;;;;;;;;;;;7.66;73.79;99863.41;5052104;27;96704;-72
2024/03/24 05:43:42;;;;;;;;;;;;;;;7.74;72.79;99858.72;5053606;27;100846;-72
2024/03/24 05:46:09;;;;;;;;;;;;;;;7.72;73.29;99858.75;5051560;27;98143;-72
2024/03/24 05:48:35;;;;;;;;;;;;;;;7.91;72.35;99857.13;5046361;27;96993;-72
2024/03/24 05:51:02;;;;;;;;;;;;;;;7.74;72.79;99851.69;5046214;27;97236;-72
2024/03/24 05:53:27;;;;;;;;;;;;;;;7.63;72.86;99850.34;5050767;27;97020;-72
2024/03/24 05:55:54;;;;;;;;;;;;;;;7.74;72.80;99858.72;5051777;27;99218;-71
2024/03/24 05:58:19;;;;;;;;;;;;;;;7.76;72.23;99851.59;5052096;27;97550;-72
2024/03/24 06:00:46;;;;;;;;;;;;;;;7.87;71.78;99842.41;5050144;27;98957;-71
2024/03/24 06:03:11;;;;;;;;;;;;;;;7.77;72.32;99848.06;5049722;27;99881;-71
2024/03/24 06:05:39;;;;;;;;;;;;;;;7.75;72.25;99842.84;5050881;27;100819;-71
2024/03/24 06:08:05;;;;;;;;;;;;;;;7.83;71.80;99840.78;5050920;27;96778;-71
2024/03/24 06:10:31;;;;;;;;;;;;;;;7.99;71.73;99841.94;5051224;27;96798;-71
2024/03/24 06:12:57;;;;;;;;;;;;;;;7.86;71.79;99853.84;5049768;27;97894;-71
2024/03/24 06:15:23;;;;;;;;;;;;;;;7.51;73.38;99844.66;5051016;27;98751;-71
2024/03/24 06:17:48;;;;;;;;;;;;;;;7.84;71.91;99833.75;5050692;27;97208;-69
2024/03/24 06:20:14;;;;;;;;;;;;;;;8.34;70.49;99843.16;5049190;27;97598;-70
2024/03/24 06:22:41;;;;;;;;;;;;;;;8.57;69.14;99844.00;5050466;27;98988;-70
2024/03/24 06:25:08;;;;;;;;;;;;;;;8.33;69.42;99841.47;5051214;27;98887;-70
2024/03/24 06:27:34;;;;;;;;;;;;;;;8.52;69.33;99836.31;5052179;27;96931;-70
2024/03/24 06:30:00;;;;;;;;;;;;;;;8.42;69.25;99839.38;5049288;27;96952;-70
2024/03/24 06:32:25;;;;;;;;;;;;;;;8.49;69.21;99830.28;5049785;27;98965;-71
2024/03/24 06:34:51;;;;;;;;;;;;;;;8.66;68.38;99833.09;5051353;27;97439;-70
2024/03/24 06:37:17;;;;;;;;;;;;;;;8.49;68.47;99827.66;5050590;27;96804;-71
2024/03/24 06:39:45;;;;;;;;;;;;;;;8.98;67.67;99835.22;5050396;27;97034;-71
2024/03/24 06:42:10;;;;;;;;;;;;;;;8.94;67.25;99827.50;5048208;27;99475;-71
2024/03/24 06:44:37;;;;;;;;;;;;;;;8.91;67.33;99831.13;5049037;27;98823;-71
2024/03/24 06:47:03;;;;;;;;;;;;;;;9.03;66.46;99838.50;5050853;27;98814;-71
2024/03/24 06:49:29;;;;;;;;;;;;;;;8.79;67.12;99831.66;5048018;27;97149;-71
2024/03/24 06:51:54;;;;;;;;;;;;;;;8.87;67.55;99837.44;5050665;27;99375;-70
2024/03/24 06:54:20;;;;;;;;;;;;;;;9.15;66.01;99835.31;5050550;27;99431;-71
2024/03/24 06:56:47;;;;;;;;;;;;;;;9.06;66.60;99829.59;5050297;27;96931;-71
2024/03/24 06:59:13;;;;;;;;;;;;;;;8.81;66.74;99829.78;5050472;27;96863;-70
2024/03/24 07:01:39;;;;;;;;;;;;;;;8.75;67.10;99828.28;5049402;27;97340;-71
2024/03/24 07:04:05;;;;;;;;;;;;;;;8.61;68.43;99822.75;5043720;27;98774;-71
2024/03/24 07:06:32;;;;;;;;;;;;;;;8.64;67.99;99820.00;5051843;27;97827;-72
2024/03/24 07:08:58;;;;;;;;;;;;;;;8.77;67.29;99820.31;5046099;27;98194;-71
2024/03/24 07:11:23;;;;;;;;;;;;;;;9.17;65.61;99815.03;5047589;27;98868;-71
2024/03/24 07:13:51;;;;;;;;;;;;;;;9.44;65.25;99812.09;5050769;27;101737;-72
2024/03/24 07:16:16;;;;;;;;;;;;;;;9.04;65.21;99816.50;5054187;27;96981;-71
2024/03/24 07:18:42;;;;;;;;;;;;;;;9.15;65.14;99808.97;5053575;27;97231;-71
2024/03/24 07:21:07;;;;;;;;;;;;;;;9.36;64.73;99811.56;5054578;27;99183;-71
2024/03/24 07:23:34;;;;;;;;;;;;;;;9.43;65.58;99810.38;5054567;27;99343;-71
2024/03/24 07:25:59;;;;;;;;;;;;;;;9.65;64.65;99811.06;5054644;27;96806;-71
2024/03/24 07:28:25;;;;;;;;;;;;;;;9.31;63.60;99808.28;5057088;27;96724;-71
2024/03/24 07:30:52;;;;;;;;;;;;;;;9.04;64.96;99815.66;5054453;27;98918;-71
2024/03/24 07:33:18;;;;;;;;;;;;;;;9.34;65.23;99811.63;5054676;27;99611;-71
2024/03/24 07:35:44;;;;;;;;;;;;;;;9.17;64.73;99812.41;5054712;27;96764;-71
2024/03/24 07:38:11;;;;;;;;;;;;;;;9.74;63.33;99805.38;5055102;27;97958;-71
2024/03/24 07:40:36;;;;;;;;;;;;;;;10.06;61.73;99806.50;5053549;27;99321;-70
2024/03/24 07:43:03;;;;;;;;;;;;;;;9.31;64.17;99803.03;5052559;27;99044;-70
2024/03/24 07:45:30;;;;;;;;;;;;;;;9.58;63.64;99799.94;5054903;27;96692;-72
2024/03/24 07:47:57;;;;;;;;;;;;;;;9.87;62.83;99801.25;5054516;27;96838;-71
2024/03/24 07:50:22;;;;;;;;;;;;;;;10.17;61.62;99798.09;5053142;27;99107;-71
2024/03/24 07:52:49;;;;;;;;;;;;;;;10.61;59.97;99795.88;5054626;27;99362;-71
2024/03/24 07:55:14;;;;;;;;;;;;;;;10.97;58.34;99795.78;5054777;27;96706;-71
2024/03/24 07:57:40;;;;;;;;;;;;;;;11.43;57.61;99799.47;5054760;27;96779;-71
2024/03/24 08:00:06;;;;;;;;;;;;;;;10.55;58.17;99790.91;5053964;27;98482;-71
2024/03/24 08:02:32;;;;;;;;;;;;;;;10.94;57.97;99795.94;5054485;27;97410;-71
2024/03/24 08:04:59;;;;;;;;;;;;;;;11.07;57.94;99789.09;5054601;27;96837;-71
2024/03/24 08:07:25;;;;;;;;;;;;;;;10.77;58.31;99786.22;5055294;27;96761;-71
2024/03/24 08:09:51;;;;;;;;;;;;;;;10.96;57.58;99788.81;5055185;27;98838;-71
2024/03/24 08:12:17;;;;;;;;;;;;;;;10.10;59.82;99791.38;5053852;27;97403;-71
2024/03/24 08:14:42;;;;;;;;;;;;;;;10.35;60.90;99778.72;5047465;27;96670;-71
2024/03/24 08:17:09;;;;;;;;;;;;;;;10.74;58.66;99779.34;5054172;27;96822;-72
2024/03/24 08:19:34;;;;;;;;;;;;;;;11.16;57.55;99776.22;5053484;27;97731;-71
2024/03/24 08:22:01;;;;;;;;;;;;;;;11.23;57.26;99768.81;5053630;27;99005;-71
2024/03/24 08:24:27;;;;;;;;;;;;;;;11.41;57.32;99769.63;5051060;27;97006;-70
2024/03/24 08:26:53;;;;;;;;;;;;;;;10.76;56.85;99772.16;5048667;27;99108;-70
2024/03/24 08:29:18;;;;;;;;;;;;;;;10.63;58.23;99765.78;5046569;27;99036;-71
2024/03/24 08:31:44;;;;;;;;;;;;;;;10.79;57.22;99766.72;5053109;27;99083;-71
2024/03/24 08:34:10;;;;;;;;;;;;;;;11.12;56.83;99768.53;5049925;27;98600;-72
2024/03/24 08:36:36;;;;;;;;;;;;;;;11.70;54.99;99760.09;5050867;27;96842;-71
2024/03/24 08:39:03;;;;;;;;;;;;;;;11.83;53.45;99751.41;5049986;27;98848;-73
2024/03/24 08:41:29;;;;;;;;;;;;;;;12.31;53.42;99760.16;5049547;27;99268;-73
2024/03/24 08:43:55;;;;;;;;;;;;;;;12.76;51.62;99764.53;5052225;27;96828;-71
2024/03/24 08:46:21;;;;;;;;;;;;;;;12.24;51.73;99745.53;5053052;27;98756;-70
2024/03/24 08:48:48;;;;;;;;;;;;;;;12.18;53.55;99757.34;5051624;27;99011;-71
2024/03/24 08:51:14;;;;;;;;;;;;;;;11.67;53.10;99744.41;5052152;27;101839;-71
2024/03/24 08:53:41;;;;;;;;;;;;;;;11.56;54.32;99752.91;5052408;27;98869;-71
2024/03/24 08:56:08;;;;;;;;;;;;;;;11.90;52.70;99751.91;5052540;27;97046;-71
2024/03/24 08:58:34;;;;;;;;;;;;;;;11.99;52.78;99740.81;5049552;27;99239;-71
2024/03/24 09:01:00;;;;;;;;;;;;;;;12.27;51.98;99745.38;5047668;27;98919;-71
2024/03/24 09:03:25;;;;;;;;;;;;;;;11.84;53.78;99742.53;5052229;27;96702;-72
2024/03/24 09:05:51;;;;;;;;;;;;;;;11.87;54.34;99737.09;5046479;27;96819;-71
2024/03/24 09:08:17;;;;;;;;;;;;;;;11.13;54.74;99754.41;5052989;27;99371;-72
2024/03/24 09:10:43;;;;;;;;;;;;;;;10.60;56.68;99747.47;5046115;27;98886;-72
2024/03/24 09:13:09;;;;;;;;;;;;;;;10.44;57.04;99738.63;5050446;27;96990;-72
2024/03/24 09:15:36;;;;;;;;;;;;;;;9.72;60.67;99737.78;5048143;27;97228;-72
2024/03/24 09:18:01;;;;;;;;;;;;;;;9.55;64.92;99746.50;5052752;27;99112;-72
2024/03/24 09:20:27;;;;;;;;;;;;;;;9.25;67.13;99745.31;5052656;27;98841;-73
2024/03/24 09:22:52;;;;;;;;;;;;;;;9.37;67.23;99748.22;5051543;27;96782;-72
2024/03/24 09:25:19;;;;;;;;;;;;;;;9.92;66.20;99741.16;5051097;27;96972;-70
2024/03/24 09:27:45;;;;;;;;;;;;;;;9.63;66.31;99738.25;5051915;27;99331;-72
2024/03/24 09:30:14;;;;;;;;;;;;;;;9.56;69.05;99742.94;5052102;27;98788;-72
2024/03/24 09:32:39;;;;;;;;;;;;;;;9.78;68.19;99748.91;5052081;27;96745;-71
2024/03/24 09:35:09;;;;;;;;;;;;;;;9.95;67.16;99748.97;5053225;27;96966;-72
2024/03/24 09:37:34;;;;;;;;;;;;;;;9.90;67.93;99744.84;5052101;27;99142;-71
2024/03/24 09:40:00;;;;;;;;;;;;;;;9.90;69.04;99745.69;5051826;27;100595;-71
2024/03/24 09:42:27;;;;;;;;;;;;;;;10.03;68.33;99742.44;5053096;27;97087;-71
2024/03/24 09:44:54;;;;;;;;;;;;;;;10.33;69.04;99749.72;5052969;27;96870;-72
2024/03/24 09:47:21;;;;;;;;;;;;;;;10.15;67.98;99747.13;5052470;27;99506;-72
2024/03/24 09:49:48;;;;;;;;;;;;;;;9.97;68.95;99749.75;5051810;27;98753;-71
2024/03/24 09:52:16;;;;;;;;;;;;;;;10.35;68.11;99741.75;5052319;27;96791;-71
2024/03/24 09:54:42;;;;;;;;;;;;;;;10.33;69.72;99740.94;5052867;27;96724;-71
2024/03/24 09:57:07;;;;;;;;;;;;;;;10.56;68.67;99748.59;5052565;27;99115;-75
2024/03/24 09:59:36;;;;;;;;;;;;;;;10.60;67.41;99743.97;5050476;27;99531;-73
2024/03/24 10:02:02;;;;;;;;;;;;;;;10.02;70.93;99735.47;5049256;27;96859;-74
2024/03/24 10:04:30;;;;;;;;;;;;;;;10.13;70.27;99738.41;5052445;27;97214;-74
2024/03/24 10:06:55;;;;;;;;;;;;;;;10.18;71.35;99744.34;5052483;27;99254;-73
2024/03/24 10:09:21;;;;;;;;;;;;;;;9.65;74.88;99753.03;5051877;27;98908;-73
2024/03/24 10:11:46;;;;;;;;;;;;;;;9.08;76.58;99751.31;5049731;27;97389;-73
2024/03/24 10:14:15;;;;;;;;;;;;;;;8.60;79.32;99743.81;5050256;27;96894;-74
2024/03/24 10:16:40;;;;;;;;;;;;;;;9.20;78.45;99743.72;5046211;27;98807;-74
2024/03/24 10:19:13;;;;;;;;;;;;;;;9.35;78.72;99743.94;5050756;27;98695;-74
2024/03/24 10:21:39;;;;;;;;;;;;;;;9.45;78.44;99747.88;5051881;27;96753;-74
2024/03/24 10:24:06;;;;;;;;;;;;;;;9.47;79.47;99743.38;5052329;27;96771;-74
2024/03/24 10:26:32;;;;;;;;;;;;;;;9.65;76.70;99739.84;5052167;27;101397;-74
2024/03/24 10:28:58;;;;;;;;;;;;;;;9.39;75.25;99746.34;5050528;27;97578;-74
2024/03/24 10:31:23;;;;;;;;;;;;;;;9.15;77.70;99743.06;5050916;27;97261;-74
2024/03/24 10:33:51;;;;;;;;;;;;;;;8.71;78.39;99741.56;5048610;27;97213;-75
2024/03/24 10:36:17;;;;;;;;;;;;;;;8.72;80.17;99738.88;5052193;27;99016;-74
2024/03/24 10:38:44;;;;;;;;;;;;;;;9.12;77.78;99737.09;5048921;27;98843;-73
2024/03/24 10:41:09;;;;;;;;;;;;;;;9.45;77.09;99734.69;5048531;27;96977;-74
2024/03/24 10:43:35;;;;;;;;;;;;;;;9.87;76.32;99731.78;5044690;27;98102;-74
2024/03/24 10:46:01;;;;;;;;;;;;;;;9.65;75.16;99731.13;5048422;27;101540;-73
2024/03/24 10:48:28;;;;;;;;;;;;;;;10.10;76.33;99728.88;5050073;27;98696;-74
2024/03/24 10:50:54;;;;;;;;;;;;;;;10.53;74.09;99724.09;5052256;27;96830;-74
2024/03/24 10:53:21;;;;;;;;;;;;;;;11.24;71.57;99716.78;5056985;27;98380;-74
2024/03/24 10:55:49;;;;;;;;;;;;;;;11.43;70.49;99718.34;5054245;27;98871;-74
2024/03/24 10:58:16;;;;;;;;;;;;;;;11.43;70.48;99715.69;5054347;27;99509;-74
2024/03/24 11:00:45;;;;;;;;;;;;;;;11.46;70.61;99714.69;5050911;27;98129;-73
2024/03/24 11:03:11;;;;;;;;;;;;;;;11.21;70.80;99707.25;5053491;27;97197;-74
2024/03/24 11:05:37;;;;;;;;;;;;;;;11.28;71.31;99716.56;5055063;27;99995;-74
2024/03/24 11:08:05;;;;;;;;;;;;;;;11.32;71.01;99717.22;5058545;27;97474;-72
2024/03/24 11:10:30;;;;;;;;;;;;;;;10.85;72.81;99711.84;5055629;27;96770;-72
2024/03/24 11:12:58;;;;;;;;;;;;;;;11.00;72.25;99700.47;5060077;27;98080;-72
2024/03/24 11:15:24;;;;;;;;;;;;;;;11.28;71.18;99698.03;5049149;27;98968;-72
2024/03/24 11:17:51;;;;;;;;;;;;;;;11.64;71.15;99702.22;5050674;27;98795;-73
2024/03/24 11:20:19;;;;;;;;;;;;;;;10.95;70.15;99705.16;5054052;27;97440;-72
2024/03/24 11:22:48;;;;;;;;;;;;;;;10.30;73.13;99712.06;5054500;27;96853;-72
2024/03/24 11:25:13;;;;;;;;;;;;;;;9.69;75.52;99704.50;5054533;27;101214;-72
2024/03/24 11:27:41;;;;;;;;;;;;;;;9.76;77.47;99702.44;5053323;27;100728;-72
2024/03/24 11:30:10;;;;;;;;;;;;;;;9.58;77.45;99693.63;5054556;27;96774;-71
2024/03/24 11:32:49;;;;;;;;;;;;;;;10.03;77.99;99694.94;5055272;27;96850;-70
2024/03/24 11:35:26;;;;;;;;;;;;;;;10.25;76.27;99695.59;5055201;27;98126;-71
2024/03/24 11:37:52;;;;;;;;;;;;;;;10.50;76.75;99689.94;5053581;27;100773;-72
2024/03/24 11:40:21;;;;;;;;;;;;;;;10.43;77.29;99685.91;5052833;27;97657;-72
2024/03/24 11:42:47;;;;;;;;;;;;;;;10.76;76.69;99700.00;5055462;27;96908;-72
2024/03/24 11:45:26;;;;;;;;;;;;;;;11.15;74.82;99684.66;5054476;27;99203;-71
2024/03/24 11:47:53;;;;;;;;;;;;;;;10.64;76.05;99693.53;5050999;27;98775;-72
2024/03/24 11:50:19;;;;;;;;;;;;;;;10.23;77.95;99693.06;5052813;27;96773;-73
2024/03/24 11:52:47;;;;;;;;;;;;;;;9.92;79.03;99682.25;5052552;27;97284;-72
2024/03/24 11:55:13;;;;;;;;;;;;;;;9.89;79.37;99691.22;5050795;27;98907;-75
2024/03/24 11:57:39;;;;;;;;;;;;;;;9.17;82.40;99679.75;5051924;27;102301;-74
2024/03/24 12:00:05;;;;;;;;;;;;;;;9.52;81.12;99678.94;5049623;27;96857;-75
2024/03/24 12:02:33;;;;;;;;;;;;;;;9.71;80.50;99683.34;5050739;27;96951;-75
2024/03/24 12:04:58;;;;;;;;;;;;;;;10.00;79.84;99678.31;5051865;27;99288;-74
2024/03/24 12:07:24;;;;;;;;;;;;;;;10.31;76.92;99672.38;5051911;27;98808;-75
2024/03/24 12:09:51;;;;;;;;;;;;;;;10.43;75.65;99676.19;5048125;27;97650;-75
2024/03/24 12:12:18;;;;;;;;;;;;;;;10.05;77.38;99678.09;5050000;27;96875;-75
2024/03/24 12:14:43;;;;;;;;;;;;;;;10.37;76.81;99673.88;5050806;27;97790;-74
2024/03/24 12:17:09;;;;;;;;;;;;;;;10.11;78.09;99677.78;5052619;27;99020;-75
2024/03/24 12:19:36;;;;;;;;;;;;;;;10.82;76.95;99669.75;5052424;27;97338;-75
2024/03/24 12:22:02;;;;;;;;;;;;;;;10.89;75.51;99665.84;5047869;27;97247;-75
2024/03/24 12:24:28;;;;;;;;;;;;;;;11.22;75.35;99668.44;5052812;27;101380;-75
2024/03/24 12:26:54;;;;;;;;;;;;;;;11.41;75.02;99669.13;5052678;27;97894;-75
2024/03/24 12:29:20;;;;;;;;;;;;;;;10.99;74.62;99664.38;5053259;27;97095;-74
2024/03/24 12:31:48;;;;;;;;;;;;;;;11.21;74.79;99659.66;5047272;27;97144;-74
2024/03/24 12:34:13;;;;;;;;;;;;;;;11.53;72.36;99656.06;5052349;27;97661;-74
2024/03/24 12:36:42;;;;;;;;;;;;;;;11.38;74.21;99653.41;5054394;27;97480;-75
2024/03/24 12:39:07;;;;;;;;;;;;;;;11.64;72.46;99646.66;5053444;27;96906;-75
2024/03/24 12:41:33;;;;;;;;;;;;;;;11.79;70.72;99648.47;5053571;27;96929;-74
2024/03/24 12:43:59;;;;;;;;;;;;;;;11.12;73.01;99646.91;5053039;27;99218;-75
2024/03/24 12:46:25;;;;;;;;;;;;;;;11.71;71.19;99648.00;5054065;27;98049;-75
2024/03/24 12:48:51;;;;;;;;;;;;;;;11.92;70.19;99646.81;5053731;27;96764;-75